This is the latest recevied weather packets stored in our database for station/object N7CEE. If no packets are shown the sender has not sent any weather packets the latest 10 day(s).
| Time | Temp. | Humidity | Pressure | Rain* | Wind** | Luminosity | Snow |
|---|---|---|---|---|---|---|---|
| 1777827998 | 19.44° C | 33% | 1025.6 hPa | 0 mm | - | 706 W/m² | - |
| 1777827695 | 18.89° C | 34% | 1025.8 hPa | 0 mm | - | 686 W/m² | - |
| 1777827088 | 18.33° C | 35% | 1025.7 hPa | 0 mm | - | 653 W/m² | - |
| 1777826785 | 18.33° C | 35% | 1025.7 hPa | 0 mm | - | 638 W/m² | - |
| 1777826482 | 17.78° C | 36% | 1025.5 hPa | 0 mm | - | 623 W/m² | - |
| 1777826178 | 17.78° C | 36% | 1025.7 hPa | 0 mm | - | 609 W/m² | - |
| 1777825876 | 16.67° C | 37% | 1025.7 hPa | 0 mm | - | 594 W/m² | - |
| 1777825271 | 16.67° C | 40% | 1025.7 hPa | 0 mm | - | 473 W/m² | - |
| 1777824361 | 15.56° C | 41% | 1026.1 hPa | 0 mm | - | 106 W/m² | - |
| 1777824056 | 15° C | 41% | 1026.1 hPa | 0 mm | - | 55 W/m² | - |
| 1777823753 | 15° C | 42% | 1026.1 hPa | 0 mm | - | 56 W/m² | - |
| 1777822543 | 14.44° C | 44% | 1026.1 hPa | 0 mm | - | 102 W/m² | - |
| 1777822240 | 14.44° C | 43% | 1026.2 hPa | 0 mm | - | 107 W/m² | - |
| 1777821635 | 13.89° C | 43% | 1026.3 hPa | 0 mm | - | 128 W/m² | - |
| 1777818909 | 7.78° C | 59% | 1026 hPa | 0 mm | - | 31 W/m² | - |
| 1777817393 | 7.22° C | 58% | 1026 hPa | 0 mm | - | 45 W/m² | - |
| 1777813454 | 5° C | 58% | 1026 hPa | 0 mm | - | 11 W/m² | - |
| 1777813151 | 5° C | 59% | 1025.8 hPa | 0 mm | - | 10 W/m² | - |
| 1777812545 | 5.56° C | 58% | 1025.6 hPa | 0 mm | - | 7 W/m² | - |
| 1777810126 | 5° C | 57% | 1025.6 hPa | 0 mm | - | 0 W/m² | - |
| 1777809824 | 5° C | 57% | 1025.7 hPa | 0 mm | - | 0 W/m² | - |
| 1777807104 | 5° C | 56% | 1025.6 hPa | 0 mm | - | 0 W/m² | - |
| 1777803772 | 5° C | 53% | 1025.5 hPa | 0 mm | - | 0 W/m² | - |
| 1777803166 | 5.56° C | 52% | 1025.5 hPa | 0 mm | - | 0 W/m² | - |
| 1777802862 | 5.56° C | 51% | 1025.3 hPa | 0 mm | - | 0 W/m² | - |
* Rain latest hour (hover to see other rain measurements)
** Current wind speed in m/s (hover to see current wind gust speed)